createdAt,value
2017-09-14T00:01:28.531Z,99420.42
2017-09-14T00:03:58.001Z,99412.16
2017-09-14T00:06:26.351Z,99411.27
2017-09-14T00:08:54.709Z,99416.44
2017-09-14T00:11:24.094Z,99412.58
2017-09-14T00:13:52.490Z,99409.66
2017-09-14T00:16:22.024Z,99408.55
2017-09-14T00:18:50.902Z,99418.56
2017-09-14T00:21:20.785Z,99419.47
2017-09-14T00:23:49.924Z,99417.86
2017-09-14T00:26:19.594Z,99415.08
2017-09-14T00:28:48.793Z,99419.62
2017-09-14T00:31:17.870Z,99420.20
2017-09-14T00:33:46.502Z,99424.86
2017-09-14T00:36:14.897Z,99425.53
2017-09-14T00:38:43.378Z,99415.83
2017-09-14T00:41:12.179Z,99419.42
2017-09-14T00:43:40.707Z,99414.59
2017-09-14T00:46:09.062Z,99408.31
2017-09-14T00:48:38.020Z,99410.05
2017-09-14T00:51:07.980Z,99402.09
2017-09-14T00:53:36.342Z,99404.58
2017-09-14T00:56:05.062Z,99403.39
2017-09-14T00:58:33.467Z,99407.31
2017-09-14T01:01:01.845Z,99415.14
2017-09-14T01:03:31.906Z,99413.24
2017-09-14T01:06:01.217Z,99411.11
2017-09-14T01:08:29.581Z,99412.20
2017-09-14T01:10:58.484Z,99413.23
2017-09-14T01:13:27.324Z,99415.38
2017-09-14T01:15:55.679Z,99414.40
2017-09-14T01:18:25.354Z,99414.53
2017-09-14T01:20:54.430Z,99417.91
2017-09-14T01:23:23.548Z,99415.72
2017-09-14T01:25:52.441Z,99418.55
2017-09-14T01:28:21.493Z,99417.93
2017-09-14T01:30:50.655Z,99420.81
2017-09-14T01:33:20.945Z,99425.73
2017-09-14T01:35:49.543Z,99416.96
2017-09-14T01:38:17.926Z,99418.44
2017-09-14T01:40:47.415Z,99422.12
2017-09-14T01:43:15.803Z,99417.50
2017-09-14T01:45:44.384Z,99420.56
2017-09-14T01:48:13.075Z,99421.35
2017-09-14T01:50:42.907Z,99417.40
2017-09-14T01:53:11.254Z,99423.86
2017-09-14T01:55:41.176Z,99418.95
2017-09-14T01:58:09.497Z,99418.42
2017-09-14T02:00:38.625Z,99420.02
2017-09-14T02:03:07.281Z,99418.94
2017-09-14T02:05:35.859Z,99416.78
2017-09-14T02:08:05.020Z,99419.56
2017-09-14T02:10:33.775Z,99409.89
2017-09-14T02:13:02.919Z,99414.14
2017-09-14T02:15:31.281Z,99410.98
2017-09-14T02:18:01.598Z,99417.13
2017-09-14T02:20:29.953Z,99411.66
2017-09-14T02:22:59.197Z,99408.72
2017-09-14T02:25:28.615Z,99412.45
2017-09-14T02:27:56.985Z,99412.02
2017-09-14T02:30:25.426Z,99405.09
2017-09-14T02:32:54.360Z,99406.17
2017-09-14T02:35:22.732Z,99408.49
2017-09-14T02:37:52.705Z,99400.36
2017-09-14T02:40:22.380Z,99404.12
2017-09-14T02:42:51.415Z,99398.18
2017-09-14T02:45:19.778Z,99403.48
2017-09-14T02:47:49.812Z,99406.74
2017-09-14T02:50:19.185Z,99397.77
2017-09-14T02:52:47.539Z,99397.81
2017-09-14T02:55:17.719Z,99400.52
2017-09-14T02:57:48.223Z,99402.92
2017-09-14T03:00:16.559Z,99392.17
2017-09-14T03:02:45.239Z,99404.56
2017-09-14T03:05:13.584Z,99397.25
2017-09-14T03:07:43.018Z,99397.20
2017-09-14T03:10:11.722Z,99393.86
2017-09-14T03:12:40.086Z,99400.98
2017-09-14T03:15:08.447Z,99402.14
2017-09-14T03:17:37.077Z,99406.45
2017-09-14T03:20:05.428Z,99405.18
2017-09-14T03:22:33.778Z,99413.38
2017-09-14T03:25:02.486Z,99416.67
2017-09-14T03:27:31.728Z,99411.48
2017-09-14T03:30:00.893Z,99421.79
2017-09-14T03:32:29.606Z,99421.58
2017-09-14T03:34:58.322Z,99422.71
2017-09-14T03:37:27.478Z,99427.05
2017-09-14T03:39:56.793Z,99419.14
2017-09-14T03:42:25.216Z,99418.52
2017-09-14T03:44:53.605Z,99420.66
2017-09-14T03:47:22.939Z,99428.56
2017-09-14T03:49:51.392Z,99426.14
2017-09-14T03:52:19.975Z,99424.81
2017-09-14T03:54:49.782Z,99432.58
2017-09-14T03:57:18.948Z,99424.97
2017-09-14T03:59:47.293Z,99433.60
2017-09-14T04:02:16.011Z,99428.36
2017-09-14T04:04:44.642Z,99439.69
2017-09-14T04:07:12.993Z,99430.23
2017-09-14T04:09:42.353Z,99431.23
2017-09-14T04:12:10.943Z,99431.21
2017-09-14T04:14:40.180Z,99441.77
2017-09-14T04:17:09.794Z,99427.27
2017-09-14T04:19:39.038Z,99436.55
2017-09-14T04:22:07.388Z,99430.59
2017-09-14T04:24:36.903Z,99438.07
2017-09-14T04:27:05.481Z,99443.34
2017-09-14T04:29:33.858Z,99440.05
2017-09-14T04:32:02.855Z,99436.83
2017-09-14T04:34:31.228Z,99436.45
2017-09-14T04:36:59.577Z,99423.59
2017-09-14T04:39:29.027Z,99429.16
2017-09-14T04:41:57.389Z,99434.38
2017-09-14T04:44:26.323Z,99434.58
2017-09-14T04:46:55.052Z,99441.45
2017-09-14T04:49:23.402Z,99436.66
2017-09-14T04:51:52.763Z,99445.98
2017-09-14T04:54:22.363Z,99435.81
2017-09-14T04:56:50.717Z,99440.73
2017-09-14T04:59:19.822Z,99435.70
2017-09-14T05:01:49.437Z,99435.91
2017-09-14T05:04:20.368Z,99433.75
2017-09-14T05:06:48.740Z,99439.86
2017-09-14T05:09:18.163Z,99435.78
2017-09-14T05:11:46.531Z,99436.84
2017-09-14T05:14:15.647Z,99435.48
2017-09-14T05:16:45.482Z,99435.61
2017-09-14T05:19:13.831Z,99428.41
2017-09-14T05:21:42.181Z,99431.94
2017-09-14T05:24:12.221Z,99435.06
2017-09-14T05:26:40.892Z,99433.68
2017-09-14T05:29:10.004Z,99439.28
2017-09-14T05:31:38.691Z,99439.03
2017-09-14T05:34:07.052Z,99432.38
2017-09-14T05:36:35.408Z,99433.02
2017-09-14T05:39:04.313Z,99431.26
2017-09-14T05:41:33.546Z,99431.48
2017-09-14T05:44:01.901Z,99437.52
2017-09-14T05:46:31.325Z,99448.21
2017-09-14T05:49:00.392Z,99440.04
2017-09-14T05:51:28.785Z,99439.86
2017-09-14T05:53:58.220Z,99441.88
2017-09-14T05:56:26.570Z,99438.25
2017-09-14T05:58:56.289Z,99445.39
2017-09-14T06:01:25.028Z,99440.02
2017-09-14T06:03:54.110Z,99441.25
2017-09-14T06:06:22.500Z,99439.32
2017-09-14T06:08:51.206Z,99433.15
2017-09-14T06:11:20.137Z,99432.95
2017-09-14T06:13:48.488Z,99435.02
2017-09-14T06:16:17.474Z,99428.56
2017-09-14T06:18:45.831Z,99423.17
2017-09-14T06:21:14.216Z,99424.56
2017-09-14T06:23:43.058Z,99417.45
2017-09-14T06:26:11.410Z,99415.66
2017-09-14T06:28:39.766Z,99417.78
2017-09-14T06:31:09.958Z,99412.50
2017-09-14T06:33:38.290Z,99406.03
2017-09-14T06:36:06.665Z,99415.81
2017-09-14T06:38:35.329Z,99422.53
2017-09-14T06:41:04.441Z,99409.92
2017-09-14T06:43:32.797Z,99409.09
2017-09-14T06:46:01.500Z,99416.52
2017-09-14T06:48:30.640Z,99411.67
2017-09-14T06:50:59.828Z,99408.91
2017-09-14T06:53:28.882Z,99415.50
2017-09-14T06:55:58.032Z,99419.69
2017-09-14T06:58:26.384Z,99415.39
2017-09-14T07:00:55.224Z,99434.97
2017-09-14T07:03:23.570Z,99424.09
2017-09-14T07:05:52.200Z,99431.78
2017-09-14T07:08:22.536Z,99432.03
2017-09-14T07:10:50.919Z,99441.41
2017-09-14T07:13:20.037Z,99445.25
2017-09-14T07:15:48.707Z,99447.38
2017-09-14T07:18:19.343Z,99437.82
2017-09-14T07:20:49.822Z,99444.93
2017-09-14T07:23:18.301Z,99439.77
2017-09-14T07:25:46.661Z,99449.66
2017-09-14T07:28:15.550Z,99451.47
2017-09-14T07:30:43.905Z,99467.67
2017-09-14T07:33:12.261Z,99473.88
2017-09-14T07:35:41.192Z,99483.59
2017-09-14T07:38:10.076Z,99481.89
2017-09-14T07:40:39.262Z,99483.14
2017-09-14T07:43:08.478Z,99491.82
2017-09-14T07:45:37.613Z,99488.63
2017-09-14T07:48:05.986Z,99490.50
2017-09-14T07:50:35.067Z,99498.00
2017-09-14T07:53:03.513Z,99512.94
2017-09-14T07:55:31.896Z,99500.84
2017-09-14T07:58:01.334Z,99501.52
2017-09-14T08:00:29.679Z,99509.30
2017-09-14T08:02:58.000Z,99505.17
2017-09-14T08:05:26.785Z,99501.46
2017-09-14T08:07:55.155Z,99501.56
2017-09-14T08:10:23.543Z,99491.86
2017-09-14T08:12:52.647Z,99492.44
2017-09-14T08:15:21.661Z,99492.27
2017-09-14T08:17:50.013Z,99493.28
2017-09-14T08:20:18.685Z,99486.41
2017-09-14T08:22:47.803Z,99488.28
2017-09-14T08:25:17.087Z,99486.01
2017-09-14T08:27:46.591Z,99489.45
2017-09-14T08:30:15.682Z,99495.22
2017-09-14T08:32:44.795Z,99486.19
2017-09-14T08:35:14.594Z,99497.52
2017-09-14T08:37:42.943Z,99496.84
2017-09-14T08:40:11.282Z,99495.55
2017-09-14T08:42:39.907Z,99488.02
2017-09-14T08:45:08.270Z,99502.15
2017-09-14T08:47:37.448Z,99498.30
2017-09-14T08:50:06.110Z,99486.02
2017-09-14T08:52:34.475Z,99487.08
2017-09-14T08:55:05.671Z,99489.17
2017-09-14T08:57:35.237Z,99492.26
2017-09-14T09:00:03.639Z,99482.26
2017-09-14T09:02:32.739Z,99487.19
2017-09-14T09:05:01.370Z,99494.36
2017-09-14T09:07:32.090Z,99483.45
2017-09-14T09:10:00.444Z,99479.38
2017-09-14T09:12:29.174Z,99481.19
2017-09-14T09:14:58.320Z,99491.92
2017-09-14T09:17:26.667Z,99486.77
2017-09-14T09:19:56.512Z,99483.63
2017-09-14T09:22:24.890Z,99474.48
2017-09-14T09:24:53.475Z,99466.77
2017-09-14T09:27:22.089Z,99478.06
2017-09-14T09:29:50.442Z,99474.84
2017-09-14T09:32:18.778Z,99470.94
2017-09-14T09:34:48.253Z,99469.42
2017-09-14T09:37:17.014Z,99481.11
2017-09-14T09:39:45.363Z,99484.30
2017-09-14T09:42:14.367Z,99485.09
2017-09-14T09:44:42.760Z,99473.91
2017-09-14T09:47:11.879Z,99488.96
2017-09-14T09:49:40.673Z,99492.63
2017-09-14T09:52:11.831Z,99481.58
2017-09-14T09:54:40.200Z,99486.69
2017-09-14T09:57:09.851Z,99487.81
2017-09-14T09:59:38.287Z,99488.08
2017-09-14T10:02:06.638Z,99490.94
2017-09-14T10:04:35.620Z,99499.34
2017-09-14T10:07:03.988Z,99507.08
2017-09-14T10:09:32.340Z,99503.39
2017-09-14T10:12:00.973Z,99508.09
2017-09-14T10:14:30.228Z,99512.59
2017-09-14T10:16:59.382Z,99514.98
2017-09-14T10:19:29.891Z,99521.05
2017-09-14T10:21:58.224Z,99513.91
2017-09-14T10:24:27.330Z,99507.68
2017-09-14T10:26:57.265Z,99515.68
2017-09-14T10:29:26.381Z,99509.66
2017-09-14T10:31:54.786Z,99523.44
2017-09-14T10:34:23.762Z,99524.38
2017-09-14T10:36:53.051Z,99518.05
2017-09-14T10:39:22.200Z,99523.39
2017-09-14T10:41:51.152Z,99524.38
2017-09-14T10:44:19.515Z,99519.88
2017-09-14T10:46:47.898Z,99526.77
2017-09-14T10:49:16.601Z,99518.27
2017-09-14T10:51:46.790Z,99531.92
2017-09-14T10:54:15.933Z,99530.63
2017-09-14T10:56:44.614Z,99537.30
2017-09-14T10:59:12.986Z,99535.86
2017-09-14T11:01:42.106Z,99534.66
2017-09-14T11:04:11.546Z,99525.12
2017-09-14T11:06:40.738Z,99538.59
2017-09-14T11:09:09.110Z,99540.92
2017-09-14T11:11:38.946Z,99527.36
2017-09-14T11:14:07.300Z,99549.80
2017-09-14T11:16:36.438Z,99533.44
2017-09-14T11:19:05.116Z,99541.36
2017-09-14T11:21:33.486Z,99533.92
2017-09-14T11:24:01.851Z,99533.16
2017-09-14T11:26:31.484Z,99531.23
2017-09-14T11:28:59.815Z,99522.20
2017-09-14T11:31:28.174Z,99521.06
2017-09-14T11:33:57.119Z,99525.19
2017-09-14T11:36:26.000Z,99515.17
2017-09-14T11:38:55.749Z,99511.38
2017-09-14T11:41:24.415Z,99518.80
2017-09-14T11:43:52.751Z,99524.19
2017-09-14T11:46:21.098Z,99520.48
2017-09-14T11:48:49.874Z,99527.36
2017-09-14T11:51:18.273Z,99516.85
2017-09-14T11:53:46.601Z,99518.19
2017-09-14T11:56:16.525Z,99518.41
2017-09-14T11:58:45.862Z,99514.59
2017-09-14T12:01:15.180Z,99518.53
2017-09-14T12:03:44.861Z,99521.78
2017-09-14T12:06:13.199Z,99513.94
2017-09-14T12:08:42.345Z,99518.55
2017-09-14T12:11:11.916Z,99515.83
2017-09-14T12:13:40.743Z,99516.41
2017-09-14T12:16:09.176Z,99518.44
2017-09-14T12:18:38.609Z,99517.53
2017-09-14T12:21:06.967Z,99529.42
2017-09-14T12:23:36.655Z,99526.63
2017-09-14T12:26:05.403Z,99533.11
2017-09-14T12:28:33.729Z,99540.58
2017-09-14T12:31:02.081Z,99538.42
2017-09-14T12:33:30.719Z,99537.58
2017-09-14T12:35:59.093Z,99537.84
2017-09-14T12:38:30.014Z,99539.94
2017-09-14T12:40:59.479Z,99545.23
2017-09-14T12:43:28.208Z,99545.56
2017-09-14T12:45:57.580Z,99537.64
2017-09-14T12:48:26.273Z,99540.47
2017-09-14T12:50:55.596Z,99537.80
2017-09-14T12:53:23.983Z,99544.68
2017-09-14T12:55:52.660Z,99552.72
2017-09-14T12:58:21.778Z,99545.47
2017-09-14T13:00:50.940Z,99551.62
2017-09-14T13:03:19.988Z,99548.69
2017-09-14T13:05:48.619Z,99544.09
2017-09-14T13:08:16.989Z,99538.05
2017-09-14T13:10:45.681Z,99539.76
2017-09-14T13:13:14.056Z,99547.76
2017-09-14T13:15:42.432Z,99549.73
2017-09-14T13:18:11.220Z,99555.35
2017-09-14T13:20:39.683Z,99546.09
2017-09-14T13:23:08.800Z,99551.50
2017-09-14T13:25:38.198Z,99568.55
2017-09-14T13:28:06.730Z,99571.48
2017-09-14T13:30:35.954Z,99577.23
2017-09-14T13:33:04.893Z,99575.80
2017-09-14T13:35:35.088Z,99575.39
2017-09-14T13:38:03.525Z,99567.89
2017-09-14T13:40:34.186Z,99572.00
2017-09-14T13:43:02.574Z,99570.00
2017-09-14T13:45:30.930Z,99586.06
2017-09-14T13:48:01.184Z,99575.00
2017-09-14T13:50:29.680Z,99581.16
2017-09-14T13:52:58.863Z,99593.11
2017-09-14T13:55:27.915Z,99601.97
2017-09-14T13:57:57.097Z,99595.70
2017-09-14T14:00:25.458Z,99598.05
2017-09-14T14:02:54.172Z,99605.63
2017-09-14T14:05:23.282Z,99611.02
2017-09-14T14:07:52.467Z,99625.91
2017-09-14T14:10:21.461Z,99624.72
2017-09-14T14:12:50.570Z,99631.25
2017-09-14T14:15:19.779Z,99629.70
2017-09-14T14:17:48.679Z,99634.80
2017-09-14T14:20:17.438Z,99637.55
2017-09-14T14:22:46.581Z,99643.44
2017-09-14T14:25:15.642Z,99641.80
2017-09-14T14:27:44.803Z,99646.41
2017-09-14T14:30:13.139Z,99640.63
2017-09-14T14:32:42.036Z,99638.86
2017-09-14T14:35:10.413Z,99644.08
2017-09-14T14:37:38.792Z,99637.04
2017-09-14T14:40:08.187Z,99634.56
2017-09-14T14:42:36.546Z,99637.84
2017-09-14T14:45:04.876Z,99649.80
2017-09-14T14:47:33.814Z,99647.59
2017-09-14T14:50:04.276Z,99645.88
2017-09-14T14:52:33.716Z,99645.59
2017-09-14T14:55:04.651Z,99641.88
2017-09-14T14:57:33.011Z,99640.55
2017-09-14T15:00:01.370Z,99646.21
2017-09-14T15:02:30.845Z,99638.84
2017-09-14T15:04:59.973Z,99637.53
2017-09-14T15:07:28.332Z,99638.03
2017-09-14T15:09:56.931Z,99643.34
2017-09-14T15:12:25.831Z,99644.23
2017-09-14T15:14:54.168Z,99634.11
2017-09-14T15:17:23.778Z,99652.85
2017-09-14T15:19:53.120Z,99652.63
2017-09-14T15:22:22.396Z,99678.64
2017-09-14T15:24:52.014Z,99699.05
2017-09-14T15:27:21.180Z,99696.26
2017-09-14T15:29:50.277Z,99707.78
2017-09-14T15:32:19.711Z,99699.95
2017-09-14T15:34:48.089Z,99693.02
2017-09-14T15:37:22.206Z,99694.02
2017-09-14T15:39:56.706Z,99686.49
2017-09-14T15:42:31.557Z,99688.77
2017-09-14T15:45:05.385Z,99682.50
2017-09-14T15:47:34.589Z,99685.33
2017-09-14T15:50:08.344Z,99682.43
2017-09-14T15:52:39.091Z,99688.81
2017-09-14T15:55:07.502Z,99693.44
2017-09-14T15:57:35.838Z,99685.74
2017-09-14T16:00:05.454Z,99692.08
2017-09-14T16:02:34.793Z,99699.36
2017-09-14T16:05:03.865Z,99703.04
2017-09-14T16:07:32.643Z,99704.62
2017-09-14T16:10:00.982Z,99712.34
2017-09-14T16:12:29.349Z,99714.31
2017-09-14T16:14:58.330Z,99707.47
2017-09-14T16:17:26.694Z,99705.49
2017-09-14T16:19:55.048Z,99701.19
2017-09-14T16:22:23.813Z,99693.47
2017-09-14T16:24:53.715Z,99699.30
2017-09-14T16:27:22.098Z,99702.34
2017-09-14T16:29:51.065Z,99698.31
2017-09-14T16:32:20.273Z,99704.44
2017-09-14T16:34:49.514Z,99699.24
2017-09-14T16:37:19.626Z,99697.64
2017-09-14T16:39:47.989Z,99702.97
2017-09-14T16:42:16.610Z,99701.93
2017-09-14T16:44:45.388Z,99705.25
2017-09-14T16:47:13.770Z,99713.64
2017-09-14T16:49:46.266Z,99713.83
2017-09-14T16:52:14.668Z,99710.94
2017-09-14T16:54:43.027Z,99712.70
2017-09-14T16:57:11.800Z,99708.50
2017-09-14T16:59:41.980Z,99709.57
2017-09-14T17:02:11.424Z,99709.98
2017-09-14T17:04:40.841Z,99710.51
2017-09-14T17:07:09.208Z,99709.61
2017-09-14T17:09:39.039Z,99716.13
2017-09-14T17:12:08.747Z,99718.64
2017-09-14T17:14:37.115Z,99723.58
2017-09-14T17:17:06.274Z,99726.03
2017-09-14T17:19:35.459Z,99725.98
2017-09-14T17:22:03.808Z,99732.13
2017-09-14T17:24:32.159Z,99730.60
2017-09-14T17:27:01.577Z,99744.08
2017-09-14T17:29:29.956Z,99745.44
2017-09-14T17:31:58.299Z,99748.88
2017-09-14T17:34:26.922Z,99748.22
2017-09-14T17:36:55.578Z,99738.78
2017-09-14T17:39:24.107Z,99741.00
2017-09-14T17:41:52.931Z,99753.26
2017-09-14T17:44:22.115Z,99747.47
2017-09-14T17:46:51.385Z,99752.84
2017-09-14T17:49:20.023Z,99753.39
2017-09-14T17:51:48.387Z,99764.41
2017-09-14T17:54:17.326Z,99768.45
2017-09-14T17:56:46.801Z,99765.96
2017-09-14T17:59:16.113Z,99773.57
2017-09-14T18:01:44.471Z,99774.78
2017-09-14T18:04:13.297Z,99780.73
2017-09-14T18:06:43.470Z,99785.98
2017-09-14T18:09:12.052Z,99791.78
2017-09-14T18:11:43.581Z,99795.63
2017-09-14T18:14:11.931Z,99789.91
2017-09-14T18:16:41.042Z,99792.88
2017-09-14T18:19:09.711Z,99794.02
2017-09-14T18:21:38.875Z,99798.89
2017-09-14T18:24:07.560Z,99805.78
2017-09-14T18:26:36.268Z,99810.66
2017-09-14T18:29:05.325Z,99812.66
2017-09-14T18:31:34.607Z,99822.16
2017-09-14T18:34:03.274Z,99828.92
2017-09-14T18:36:32.747Z,99825.31
2017-09-14T18:39:01.105Z,99828.59
2017-09-14T18:41:30.669Z,99824.47
2017-09-14T18:44:01.978Z,99831.42
2017-09-14T18:46:30.345Z,99832.52
2017-09-14T18:48:59.225Z,99832.27
2017-09-14T18:51:28.410Z,99842.75
2017-09-14T18:53:58.481Z,99842.59
2017-09-14T18:56:27.978Z,99849.59
2017-09-14T18:58:57.785Z,99850.11
2017-09-14T19:01:26.123Z,99859.30
2017-09-14T19:03:55.674Z,99869.95
2017-09-14T19:06:24.040Z,99864.25
2017-09-14T19:08:52.428Z,99868.22
2017-09-14T19:11:21.321Z,99868.84
2017-09-14T19:13:51.494Z,99876.19
2017-09-14T19:16:22.667Z,99875.37
2017-09-14T19:18:51.068Z,99881.46
2017-09-14T19:21:19.476Z,99878.70
2017-09-14T19:23:48.123Z,99872.58
2017-09-14T19:26:17.611Z,99885.53
2017-09-14T19:28:47.118Z,99883.39
2017-09-14T19:31:16.913Z,99886.00
2017-09-14T19:33:46.176Z,99887.40
2017-09-14T19:36:15.599Z,99893.18
2017-09-14T19:38:45.767Z,99897.02
2017-09-14T19:41:15.133Z,99907.30
2017-09-14T19:43:44.326Z,99905.64
2017-09-14T19:46:14.113Z,99911.12
2017-09-14T19:48:42.698Z,99909.94
2017-09-14T19:51:11.841Z,99919.33
2017-09-14T19:53:42.190Z,99920.38
2017-09-14T19:56:10.518Z,99928.14
2017-09-14T19:58:39.786Z,99920.24
2017-09-14T20:01:09.366Z,99931.50
2017-09-14T20:03:38.123Z,99933.70
2017-09-14T20:06:07.273Z,99940.54
2017-09-14T20:08:36.040Z,99933.19
2017-09-14T20:11:05.820Z,99935.62
2017-09-14T20:13:34.278Z,99938.14
2017-09-14T20:16:04.864Z,99940.97
2017-09-14T20:18:33.256Z,99946.33
2017-09-14T20:21:01.624Z,99954.81
2017-09-14T20:23:31.249Z,99962.05
2017-09-14T20:25:59.640Z,99961.53
2017-09-14T20:28:28.384Z,99970.96
2017-09-14T20:30:57.678Z,99968.02
2017-09-14T20:33:26.370Z,99969.70
2017-09-14T20:35:54.794Z,99975.56
2017-09-14T20:38:23.736Z,99980.29
2017-09-14T20:40:52.161Z,99977.98
2017-09-14T20:43:20.521Z,99984.80
2017-09-14T20:45:49.202Z,99983.44
2017-09-14T20:48:17.618Z,99995.17
2017-09-14T20:50:50.152Z,99993.29
2017-09-14T20:53:19.440Z,99996.44
2017-09-14T20:55:48.085Z,100001.16
2017-09-14T20:58:16.469Z,100006.91
2017-09-14T21:00:46.022Z,100003.45
2017-09-14T21:03:14.415Z,100011.84
2017-09-14T21:05:42.782Z,100019.29
2017-09-14T21:08:11.682Z,100022.54
2017-09-14T21:10:40.065Z,100029.36
2017-09-14T21:13:08.473Z,100030.83
2017-09-14T21:15:37.957Z,100032.27
2017-09-14T21:18:06.763Z,100037.11
2017-09-14T21:20:35.118Z,100039.22
2017-09-14T21:23:03.826Z,100043.93
2017-09-14T21:25:32.579Z,100047.81
2017-09-14T21:28:00.978Z,100054.18
2017-09-14T21:30:30.689Z,100063.86
2017-09-14T21:32:59.061Z,100068.16
2017-09-14T21:35:27.456Z,100063.34
2017-09-14T21:37:56.320Z,100075.81
2017-09-14T21:40:24.744Z,100082.45
2017-09-14T21:42:53.982Z,100077.10
2017-09-14T21:45:23.594Z,100093.58
2017-09-14T21:47:52.003Z,100093.27
2017-09-14T21:50:20.367Z,100093.37
2017-09-14T21:52:49.076Z,100094.48
2017-09-14T21:55:17.455Z,100105.59
2017-09-14T21:57:45.854Z,100102.23
2017-09-14T22:00:14.535Z,100105.37
2017-09-14T22:02:43.022Z,100111.27
2017-09-14T22:05:11.392Z,100112.61
2017-09-14T22:07:40.213Z,100113.56
2017-09-14T22:10:09.376Z,100119.48
2017-09-14T22:12:38.476Z,100119.59
2017-09-14T22:15:08.669Z,100124.48
2017-09-14T22:17:37.674Z,100130.97
2017-09-14T22:20:06.044Z,100136.12
2017-09-14T22:22:34.781Z,100135.06
2017-09-14T22:25:03.164Z,100146.16
2017-09-14T22:27:31.560Z,100141.88
2017-09-14T22:30:00.372Z,100143.98
2017-09-14T22:32:28.781Z,100147.66
2017-09-14T22:34:57.134Z,100164.95
2017-09-14T22:37:26.074Z,100167.73
2017-09-14T22:39:54.673Z,100171.63
2017-09-14T22:42:23.836Z,100177.84
2017-09-14T22:44:53.010Z,100172.59
2017-09-14T22:47:21.439Z,100175.88
2017-09-14T22:49:50.979Z,100175.46
2017-09-14T22:52:19.697Z,100184.39
2017-09-14T22:54:48.309Z,100187.90
2017-09-14T22:57:17.375Z,100199.87
2017-09-14T22:59:46.029Z,100204.18
2017-09-14T23:02:14.428Z,100212.07
2017-09-14T23:04:42.820Z,100209.42
2017-09-14T23:07:11.506Z,100216.13
2017-09-14T23:09:40.871Z,100207.33
2017-09-14T23:12:09.930Z,100221.35
2017-09-14T23:14:39.069Z,100209.44
2017-09-14T23:17:07.431Z,100222.78
2017-09-14T23:19:37.332Z,100228.36
2017-09-14T23:22:06.179Z,100238.16
2017-09-14T23:24:34.541Z,100245.28
2017-09-14T23:27:03.762Z,100247.39
2017-09-14T23:29:33.562Z,100253.38
2017-09-14T23:32:03.172Z,100245.67
2017-09-14T23:34:31.624Z,100258.53
2017-09-14T23:37:00.446Z,100269.50
2017-09-14T23:39:29.543Z,100276.38
2017-09-14T23:41:58.778Z,100280.91
2017-09-14T23:44:27.488Z,100287.39
2017-09-14T23:46:55.861Z,100287.13
2017-09-14T23:49:24.270Z,100294.40
2017-09-14T23:51:52.959Z,100278.53
2017-09-14T23:54:24.252Z,100287.20
2017-09-14T23:56:54.119Z,100289.72
2017-09-14T23:59:23.203Z,100302.72
